3TX8 weather

CLOSED Drop Field
Justin, Texas, United States

Public forecast

Using degrees Fahrenheit for public forecast. Weather courtesy of forecast.io.

METAR (pilot weather report)

Closest report is Fort Worth Alliance Airport, 8.4 nm (15.5 km) S. Retrieved 2019/07/20 08:53 UTC (20 minutes ago):

KAFW 200853Z 18014KT 10SM FEW300 28/22 A2990 RMK AO2 SLP106 T02830222 56004

TAF (pilot weather forecast)

Closest forecast is Fort Worth Alliance Airport, 8.4 nm (15.5 km) S. Retrieved 2019/07/20 06:22 UTC (3 hours ago):

TAF KAFW 200520Z 2006/2106 17017KT P6SM FEW050 SCT250